Time;durP1;ratioP1;P1;durP2;ratioP2;P2;SDS_P1;SDS_P2;PMS_P1;PMS_P2;Temp;Humidity;BMP_temperature;BMP_pressure;BME280_temperature;BME280_humidity;BME280_pressure;Samples;Min_cycle;Max_cycle;Signal;HPM_P1;HPM_P2
2022/08/04 00:01:44;;;;;;;2.90;2.70;;;31.00;35.60;;;;;;5088770;28;45220;-68
2022/08/04 00:04:14;;;;;;;2.80;2.60;;;31.00;35.80;;;;;;5088884;28;45413;-68
2022/08/04 00:06:48;;;;;;;2.70;2.50;;;31.00;35.80;;;;;;5089114;28;45292;-68
2022/08/04 00:09:17;;;;;;;3.38;3.05;;;30.90;35.70;;;;;;5088557;28;46673;-68
2022/08/04 00:11:45;;;;;;;3.00;2.80;;;30.90;35.70;;;;;;5088594;28;45195;-68
2022/08/04 00:14:15;;;;;;;3.10;2.63;;;30.90;35.80;;;;;;5065999;28;45292;-68
2022/08/04 00:16:42;;;;;;;2.92;2.72;;;30.90;35.80;;;;;;5068564;28;45238;-68
2022/08/04 00:19:11;;;;;;;2.90;2.70;;;30.90;35.80;;;;;;5068301;28;46338;-68
2022/08/04 00:21:39;;;;;;;3.20;3.00;;;30.80;36.00;;;;;;5068185;28;45284;-68
2022/08/04 00:24:06;;;;;;;2.95;2.70;;;30.80;35.90;;;;;;5068329;28;45145;-68
2022/08/04 00:26:33;;;;;;;2.90;2.45;;;30.80;36.00;;;;;;5068448;28;45193;-68
2022/08/04 00:29:00;;;;;;;3.20;2.92;;;30.80;36.00;;;;;;5069247;28;46377;-69
2022/08/04 00:31:28;;;;;;;2.65;2.45;;;30.70;35.80;;;;;;5085818;28;45312;-68
2022/08/04 00:33:55;;;;;;;2.72;2.53;;;30.70;36.00;;;;;;5088488;28;45318;-68
2022/08/04 00:36:22;;;;;;;3.33;3.03;;;30.70;36.00;;;;;;5086073;28;45194;-69
2022/08/04 00:38:48;;;;;;;3.40;3.10;;;30.70;36.10;;;;;;5088130;28;47262;-69
2022/08/04 00:41:21;;;;;;;2.92;2.72;;;30.70;36.00;;;;;;5088426;28;45205;-68
2022/08/04 00:43:53;;;;;;;3.03;2.83;;;30.60;36.00;;;;;;5088372;28;45197;-68
2022/08/04 00:46:38;;;;;;;3.20;2.50;;;30.60;36.00;;;;;;5087795;27;45317;-69
2022/08/04 00:49:29;;;;;;;2.55;2.35;;;30.60;35.90;;;;;;5087879;28;45462;-68
2022/08/04 00:52:00;;;;;;;2.85;2.65;;;30.60;36.00;;;;;;5087597;28;45322;-69
2022/08/04 00:54:37;;;;;;;2.67;2.47;;;30.60;36.00;;;;;;5088223;28;45227;-68
2022/08/04 00:57:23;;;;;;;2.90;2.70;;;30.60;36.10;;;;;;5088306;28;45428;-68
2022/08/04 00:59:56;;;;;;;3.08;2.88;;;30.50;35.90;;;;;;5087871;28;46343;-68
2022/08/04 01:02:29;;;;;;;3.00;2.53;;;30.50;36.00;;;;;;5087848;28;45194;-69
2022/08/04 01:05:03;;;;;;;3.63;2.70;;;30.50;35.90;;;;;;5088112;28;45348;-69
2022/08/04 01:07:52;;;;;;;2.80;2.60;;;30.50;36.60;;;;;;5088081;28;45254;-69
2022/08/04 01:10:24;;;;;;;2.78;2.47;;;30.40;35.90;;;;;;5087575;28;46492;-68
2022/08/04 01:13:23;;;;;;;3.42;2.60;;;30.40;35.90;;;;;;5087669;28;45300;-68
2022/08/04 01:15:54;;;;;;;2.65;2.40;;;30.40;36.00;;;;;;5076873;28;45202;-69
2022/08/04 01:18:26;;;;;;;2.70;2.50;;;30.40;36.00;;;;;;5088059;28;45208;-69
2022/08/04 01:21:00;;;;;;;3.00;2.80;;;30.40;36.00;;;;;;5087513;28;45300;-69
2022/08/04 01:23:55;;;;;;;2.72;2.53;;;30.40;36.10;;;;;;5087630;28;45269;-68
2022/08/04 01:26:42;;;;;;;2.90;2.70;;;30.30;36.00;;;;;;5083818;28;45458;-69
2022/08/04 01:29:10;;;;;;;2.38;2.17;;;30.30;36.20;;;;;;5087687;28;45310;-68
2022/08/04 01:31:42;;;;;;;2.92;2.72;;;30.30;36.00;;;;;;5087338;28;48435;-69
2022/08/04 01:34:12;;;;;;;2.85;2.65;;;30.30;36.10;;;;;;5087438;28;45249;-69
2022/08/04 01:36:42;;;;;;;2.50;2.30;;;30.30;36.20;;;;;;5087574;28;45181;-68
2022/08/04 01:41:51;;;;;;;2.28;2.17;;;30.30;36.20;;;;;;5086054;28;45496;-69
2022/08/04 01:44:20;;;;;;;2.20;2.10;;;30.20;36.30;;;;;;5087274;28;45304;-69
2022/08/04 01:46:47;;;;;;;2.50;2.30;;;30.20;36.20;;;;;;5087494;28;45216;-68
2022/08/04 01:49:14;;;;;;;2.53;2.40;;;30.20;36.20;;;;;;5087501;28;45276;-69
2022/08/04 01:51:40;;;;;;;2.45;2.25;;;30.20;36.30;;;;;;5087223;28;45265;-68
2022/08/04 01:54:07;;;;;;;2.55;2.35;;;30.10;36.30;;;;;;5087233;28;45437;-69
2022/08/04 01:56:34;;;;;;;2.25;2.05;;;30.20;36.10;;;;;;5084631;28;45291;-69
2022/08/04 01:59:01;;;;;;;2.58;2.38;;;30.10;36.30;;;;;;5087377;28;45234;-69
2022/08/04 02:01:29;;;;;;;2.47;2.30;;;30.10;36.40;;;;;;5086815;28;45201;-68
2022/08/04 02:03:56;;;;;;;2.10;2.00;;;30.10;36.30;;;;;;5086952;28;45139;-69
2022/08/04 02:06:30;;;;;;;3.25;2.28;;;30.10;36.40;;;;;;5087226;28;45226;-68
2022/08/04 02:09:03;;;;;;;2.47;2.03;;;30.00;36.40;;;;;;5087089;28;45303;-68
2022/08/04 02:11:30;;;;;;;2.55;2.08;;;30.00;36.30;;;;;;5084077;28;45398;-68
2022/08/04 02:13:58;;;;;;;2.38;2.17;;;30.00;36.40;;;;;;5086728;28;45396;-69
2022/08/04 02:16:32;;;;;;;2.60;2.40;;;30.00;36.40;;;;;;5086862;28;45142;-69
2022/08/04 02:19:02;;;;;;;2.20;2.10;;;30.00;36.40;;;;;;5086868;28;45412;-68
2022/08/04 02:21:29;;;;;;;2.33;2.15;;;30.00;36.40;;;;;;5086443;28;45420;-68
2022/08/04 02:23:59;;;;;;;2.10;2.00;;;30.00;36.40;;;;;;5086582;28;45420;-69
2022/08/04 02:26:26;;;;;;;2.58;2.38;;;29.90;36.40;;;;;;5086711;28;45420;-68
2022/08/04 02:28:55;;;;;;;2.53;2.33;;;29.90;36.40;;;;;;5086745;28;45215;-69
2022/08/04 02:31:27;;;;;;;2.10;2.00;;;29.90;36.40;;;;;;5086453;28;46386;-68
2022/08/04 02:33:59;;;;;;;1.95;1.85;;;29.90;36.40;;;;;;5086511;28;45198;-69
2022/08/04 02:36:35;;;;;;;2.45;2.25;;;29.90;36.30;;;;;;5086669;28;45372;-69
2022/08/04 02:39:03;;;;;;;2.20;2.10;;;29.90;36.50;;;;;;5086502;28;45459;-68
2022/08/04 02:41:30;;;;;;;2.58;2.38;;;29.80;36.30;;;;;;5086376;28;45306;-68
2022/08/04 02:43:58;;;;;;;2.20;2.00;;;29.80;36.30;;;;;;5086707;28;45297;-69
2022/08/04 02:46:25;;;;;;;2.28;2.17;;;29.80;36.50;;;;;;5083891;28;45249;-69
2022/08/04 02:48:53;;;;;;;2.35;2.17;;;29.80;36.50;;;;;;5086665;28;45249;-69
2022/08/04 02:51:22;;;;;;;2.35;2.15;;;29.80;36.50;;;;;;5086278;28;46692;-68
2022/08/04 02:53:50;;;;;;;2.03;1.92;;;29.80;36.50;;;;;;5086367;28;45296;-69
2022/08/04 02:56:18;;;;;;;2.17;1.98;;;29.70;36.50;;;;;;5086531;28;45177;-68
2022/08/04 02:58:45;;;;;;;2.47;2.28;;;29.80;36.70;;;;;;5086525;28;45333;-68
2022/08/04 03:01:12;;;;;;;2.40;2.20;;;29.80;36.70;;;;;;5086578;28;45313;-69
2022/08/04 03:03:40;;;;;;;2.15;2.05;;;29.70;36.60;;;;;;5086199;28;45305;-69
2022/08/04 03:06:33;;;;;;;2.75;2.40;;;29.70;36.60;;;;;;5086546;28;45146;-69
2022/08/04 03:09:06;;;;;;;2.10;2.00;;;29.70;36.60;;;;;;5087161;27;45372;-69
2022/08/04 03:11:50;;;;;;;2.30;2.13;;;29.70;36.60;;;;;;5089696;28;45243;-69
2022/08/04 03:14:28;;;;;;;2.10;2.00;;;29.60;36.50;;;;;;5069734;28;45296;-68
2022/08/04 03:17:16;;;;;;;2.22;2.03;;;29.60;36.70;;;;;;5066775;28;45269;-69
2022/08/04 03:20:10;;;;;;;2.30;2.10;;;29.60;36.70;;;;;;5069547;28;45450;-69
2022/08/04 03:23:07;;;;;;;2.20;2.10;;;29.60;36.80;;;;;;5069086;28;45617;-69
2022/08/04 03:26:05;;;;;;;1.92;1.83;;;29.50;36.90;;;;;;5069059;28;46122;-69
2022/08/04 03:29:07;;;;;;;2.50;2.30;;;29.50;36.90;;;;;;5069212;28;45284;-68
2022/08/04 03:32:00;;;;;;;2.10;2.00;;;29.50;37.00;;;;;;5069294;28;45228;-69
2022/08/04 03:34:34;;;;;;;2.00;1.90;;;29.50;36.90;;;;;;5068871;28;45491;-68
2022/08/04 03:37:11;;;;;;;2.00;1.90;;;29.40;36.90;;;;;;5069028;28;45265;-68
2022/08/04 03:40:07;;;;;;;2.42;2.22;;;29.40;36.80;;;;;;5068864;28;45369;-68
2022/08/04 03:42:51;;;;;;;1.90;1.80;;;29.40;36.80;;;;;;5069054;28;45468;-68
2022/08/04 03:45:47;;;;;;;2.10;1.90;;;29.30;36.90;;;;;;5068736;28;45237;-68
2022/08/04 03:48:24;;;;;;;1.95;1.85;;;29.30;36.90;;;;;;5051971;28;45209;-68
2022/08/04 03:54:09;;;;;;;2.20;2.08;;;29.30;37.10;;;;;;5069282;28;45326;-68
2022/08/04 03:57:06;;;;;;;2.13;2.03;;;29.30;36.90;;;;;;5068373;28;46401;-68
2022/08/04 03:59:56;;;;;;;1.90;1.80;;;29.20;37.00;;;;;;5068532;28;45206;-68
2022/08/04 04:02:51;;;;;;;1.80;1.70;;;29.20;37.00;;;;;;5068634;28;45247;-69
2022/08/04 04:05:39;;;;;;;2.00;1.90;;;29.20;37.10;;;;;;5068700;28;45291;-68
2022/08/04 04:08:25;;;;;;;2.00;1.90;;;29.20;37.20;;;;;;5046747;28;45551;-68
2022/08/04 04:11:20;;;;;;;2.20;2.00;;;29.20;37.20;;;;;;5068267;28;45215;-68
2022/08/04 04:13:59;;;;;;;2.30;2.10;;;29.20;37.30;;;;;;5074946;28;45204;-68
2022/08/04 04:16:32;;;;;;;2.35;2.17;;;29.10;37.20;;;;;;5089072;28;45170;-69
2022/08/04 04:19:23;;;;;;;2.35;2.15;;;29.10;37.20;;;;;;5088467;28;46688;-69
2022/08/04 04:22:03;;;;;;;2.00;1.90;;;29.10;37.20;;;;;;5087329;27;45287;-68
2022/08/04 04:25:00;;;;;;;2.20;2.00;;;29.00;37.20;;;;;;5088717;28;45289;-68
2022/08/04 04:27:34;;;;;;;2.13;2.03;;;29.00;37.40;;;;;;5088783;28;45207;-68
2022/08/04 04:30:08;;;;;;;2.40;2.10;;;29.00;37.30;;;;;;5088084;28;46687;-68
2022/08/04 04:32:55;;;;;;;2.10;2.00;;;29.00;37.20;;;;;;5088375;28;45174;-68
2022/08/04 04:35:29;;;;;;;2.22;2.03;;;29.00;37.50;;;;;;5088504;28;45321;-68
2022/08/04 04:38:04;;;;;;;1.98;1.85;;;29.00;37.40;;;;;;5088590;28;45191;-68
2022/08/04 04:40:34;;;;;;;2.00;1.90;;;28.90;37.40;;;;;;5087701;28;45238;-69
2022/08/04 04:43:30;;;;;;;2.20;2.10;;;28.90;37.40;;;;;;5088060;28;45356;-68
2022/08/04 04:46:03;;;;;;;1.92;1.83;;;28.90;37.40;;;;;;5088387;28;45186;-68
2022/08/04 04:48:34;;;;;;;2.30;2.20;;;28.90;37.50;;;;;;5088393;28;45228;-68
2022/08/04 04:51:08;;;;;;;2.40;2.20;;;28.90;37.70;;;;;;5087889;28;46679;-68
2022/08/04 04:53:38;;;;;;;1.88;1.77;;;28.90;37.80;;;;;;5088066;28;45174;-68
2022/08/04 04:56:07;;;;;;;1.95;1.85;;;28.80;37.70;;;;;;5087908;28;45320;-68
2022/08/04 04:58:34;;;;;;;2.22;2.03;;;28.90;37.50;;;;;;5088159;28;45471;-68
2022/08/04 05:01:17;;;;;;;2.05;1.95;;;28.80;37.50;;;;;;5087829;28;46353;-68
2022/08/04 05:03:53;;;;;;;2.10;2.00;;;28.80;37.60;;;;;;5088145;28;45199;-68
2022/08/04 05:06:52;;;;;;;2.45;2.03;;;28.80;37.60;;;;;;5088019;28;45257;-68
2022/08/04 05:09:27;;;;;;;1.83;1.73;;;28.80;37.70;;;;;;5066099;28;45461;-68
2022/08/04 05:12:14;;;;;;;2.30;2.10;;;28.70;37.60;;;;;;5087498;28;46394;-68
2022/08/04 05:14:43;;;;;;;1.90;1.80;;;28.70;37.80;;;;;;5087632;28;45315;-68
2022/08/04 05:17:17;;;;;;;2.40;2.20;;;28.70;37.60;;;;;;5087829;28;45202;-68
2022/08/04 05:19:49;;;;;;;3.20;1.90;;;28.70;37.80;;;;;;5087974;28;45301;-68
2022/08/04 05:22:21;;;;;;;1.95;1.85;;;28.70;37.90;;;;;;5087526;28;46406;-68
2022/08/04 05:24:48;;;;;;;2.42;2.20;;;28.70;37.90;;;;;;5087556;28;45335;-68
2022/08/04 05:27:17;;;;;;;3.83;1.90;;;28.70;37.90;;;;;;5087526;28;45293;-68
2022/08/04 05:29:49;;;;;;;2.13;1.95;;;28.80;37.90;;;;;;5087743;28;45240;-68
2022/08/04 05:32:17;;;;;;;2.05;1.90;;;28.70;37.80;;;;;;5086976;27;46547;-68
2022/08/04 05:34:45;;;;;;;1.98;1.85;;;28.80;37.80;;;;;;5087344;28;45265;-69
2022/08/04 05:37:15;;;;;;;2.05;1.85;;;28.70;37.70;;;;;;5087647;28;45126;-68
2022/08/04 05:39:44;;;;;;;2.25;2.05;;;28.70;37.70;;;;;;5087361;28;45527;-68
2022/08/04 05:42:11;;;;;;;2.00;1.80;;;28.70;37.80;;;;;;5087447;28;45194;-68
2022/08/04 05:44:38;;;;;;;2.20;1.88;;;28.70;37.70;;;;;;5087544;28;45312;-68
2022/08/04 05:47:05;;;;;;;2.13;1.92;;;28.70;37.70;;;;;;5087513;28;45252;-68
2022/08/04 05:49:33;;;;;;;2.28;2.08;;;28.70;37.70;;;;;;5087705;28;45304;-69
2022/08/04 05:52:01;;;;;;;1.83;1.73;;;28.70;37.70;;;;;;5086959;28;46339;-68
2022/08/04 05:54:28;;;;;;;2.00;1.80;;;28.70;37.70;;;;;;5087023;28;45372;-68
2022/08/04 05:56:55;;;;;;;2.15;2.00;;;28.70;37.70;;;;;;5087105;28;45242;-68
2022/08/04 05:59:24;;;;;;;1.80;1.70;;;28.70;37.80;;;;;;5087365;28;45488;-68
2022/08/04 06:01:51;;;;;;;2.15;1.90;;;28.70;37.70;;;;;;5086630;28;45304;-68
2022/08/04 06:04:18;;;;;;;2.03;1.92;;;28.70;37.70;;;;;;5086908;28;45258;-69
2022/08/04 06:06:46;;;;;;;2.00;1.80;;;28.70;37.70;;;;;;5087027;28;45238;-68
2022/08/04 06:09:13;;;;;;;2.00;1.90;;;28.70;37.70;;;;;;5087034;28;45286;-68
2022/08/04 06:11:40;;;;;;;2.10;1.90;;;28.70;37.70;;;;;;5086509;28;45720;-69
2022/08/04 06:14:09;;;;;;;2.30;2.10;;;28.70;37.70;;;;;;5086705;28;45194;-68
2022/08/04 06:16:37;;;;;;;1.77;1.67;;;28.70;38.40;;;;;;5086917;28;45220;-68
2022/08/04 06:19:05;;;;;;;2.05;1.95;;;28.70;37.70;;;;;;5087029;28;45258;-68
2022/08/04 06:21:32;;;;;;;1.88;1.77;;;28.70;37.80;;;;;;5086552;28;45285;-68
2022/08/04 06:24:00;;;;;;;1.80;1.70;;;28.70;37.70;;;;;;5086353;28;45266;-68
2022/08/04 06:26:27;;;;;;;2.15;2.05;;;28.70;37.80;;;;;;5086972;28;45376;-68
2022/08/04 06:28:54;;;;;;;2.33;2.13;;;28.70;37.80;;;;;;5086654;28;45179;-69
2022/08/04 06:31:31;;;;;;;2.03;1.83;;;28.70;37.70;;;;;;5086223;28;45621;-68
2022/08/04 06:34:00;;;;;;;2.25;2.08;;;28.60;37.70;;;;;;5086415;28;45395;-68
2022/08/04 06:36:27;;;;;;;2.15;2.00;;;28.70;37.70;;;;;;5086453;28;45271;-68
2022/08/04 06:38:54;;;;;;;1.98;1.88;;;28.70;37.70;;;;;;5086190;28;45452;-68
2022/08/04 06:41:22;;;;;;;1.80;1.70;;;28.70;37.80;;;;;;5086259;28;46746;-68
2022/08/04 06:43:49;;;;;;;2.05;1.95;;;28.70;37.70;;;;;;5085432;28;45374;-68
2022/08/04 06:46:16;;;;;;;1.88;1.70;;;28.70;37.70;;;;;;5086420;28;45348;-69
2022/08/04 06:48:43;;;;;;;1.77;1.67;;;28.70;37.80;;;;;;5086687;28;45278;-68
2022/08/04 06:51:10;;;;;;;1.88;1.73;;;28.70;37.80;;;;;;5086033;28;48416;-68
2022/08/04 06:53:36;;;;;;;1.88;1.77;;;28.70;37.70;;;;;;5086109;28;45261;-68
2022/08/04 06:56:04;;;;;;;2.40;1.58;;;28.70;37.70;;;;;;5086257;28;45232;-68
2022/08/04 06:58:32;;;;;;;2.08;1.98;;;28.70;37.70;;;;;;5086327;28;45298;-68
2022/08/04 07:01:00;;;;;;;1.98;1.75;;;28.70;37.70;;;;;;5086077;28;46400;-68
2022/08/04 07:03:27;;;;;;;1.95;1.85;;;28.80;37.80;;;;;;5086346;28;45431;-68
2022/08/04 07:05:54;;;;;;;2.15;1.95;;;28.80;37.80;;;;;;5086216;28;45311;-68
2022/08/04 07:08:21;;;;;;;1.73;1.63;;;28.80;37.80;;;;;;5086304;28;45412;-68
2022/08/04 07:10:48;;;;;;;1.90;1.80;;;28.80;37.70;;;;;;5085911;28;46402;-68
2022/08/04 07:13:14;;;;;;;1.85;1.75;;;28.80;37.70;;;;;;5085820;28;45226;-68
2022/08/04 07:15:44;;;;;;;1.90;1.80;;;28.80;37.70;;;;;;5083386;28;45189;-68
2022/08/04 07:18:11;;;;;;;2.92;1.77;;;28.80;37.60;;;;;;5086255;28;45216;-68
2022/08/04 07:20:41;;;;;;;1.90;1.80;;;28.80;37.60;;;;;;5085640;28;46500;-68
2022/08/04 07:23:09;;;;;;;2.00;1.90;;;28.80;37.60;;;;;;5086118;28;45862;-68
2022/08/04 07:25:35;;;;;;;2.00;1.90;;;28.80;37.60;;;;;;5085917;28;45272;-68
2022/08/04 07:28:02;;;;;;;1.58;1.48;;;28.80;37.70;;;;;;5083482;28;45303;-68
2022/08/04 07:30:29;;;;;;;1.83;1.73;;;28.90;37.70;;;;;;5085297;28;46405;-69
2022/08/04 07:32:57;;;;;;;2.00;1.90;;;28.90;37.70;;;;;;5085864;28;45174;-69
2022/08/04 07:35:24;;;;;;;1.92;1.83;;;28.90;37.60;;;;;;5085665;28;45311;-69
2022/08/04 07:37:51;;;;;;;1.70;1.60;;;28.90;37.60;;;;;;5085917;28;45414;-69
2022/08/04 07:40:18;;;;;;;1.75;1.65;;;28.90;37.60;;;;;;5085411;28;46697;-68
2022/08/04 07:42:45;;;;;;;2.00;1.67;;;29.00;37.70;;;;;;5085437;28;45301;-69
2022/08/04 07:45:12;;;;;;;1.80;1.70;;;29.00;37.60;;;;;;5085700;28;45249;-69
2022/08/04 07:47:39;;;;;;;1.90;1.80;;;29.00;37.60;;;;;;5085783;28;45360;-68
2022/08/04 07:50:09;;;;;;;1.70;1.60;;;29.10;37.70;;;;;;5085430;28;45456;-69
2022/08/04 07:52:36;;;;;;;1.80;1.70;;;29.10;37.70;;;;;;5085345;28;45255;-68
2022/08/04 07:55:03;;;;;;;1.83;1.63;;;29.10;37.80;;;;;;5086270;27;45293;-69
2022/08/04 07:57:30;;;;;;;1.85;1.75;;;29.10;37.80;;;;;;5089195;28;45281;-69
2022/08/04 07:59:57;;;;;;;1.80;1.70;;;29.10;37.80;;;;;;5088700;28;45462;-69
2022/08/04 08:02:24;;;;;;;2.05;1.80;;;29.10;37.90;;;;;;5089997;28;45263;-68
2022/08/04 08:04:51;;;;;;;2.08;1.88;;;29.20;37.70;;;;;;5088730;28;45198;-68
2022/08/04 08:07:20;;;;;;;3.15;2.00;;;29.20;37.80;;;;;;5089072;28;45197;-68
2022/08/04 08:09:47;;;;;;;3.08;2.20;;;29.20;38.10;;;;;;5088638;28;46915;-69
2022/08/04 08:12:14;;;;;;;2.55;2.35;;;29.30;38.80;;;;;;5088500;28;45305;-69
2022/08/04 08:14:40;;;;;;;4.50;2.30;;;29.30;39.10;;;;;;5088716;28;45209;-69
2022/08/04 08:17:07;;;;;;;3.80;2.40;;;29.40;39.20;;;;;;5088772;28;45174;-69
2022/08/04 08:19:37;;;;;;;2.80;2.17;;;29.50;39.20;;;;;;5088332;28;46371;-69
2022/08/04 08:22:04;;;;;;;2.78;2.13;;;29.50;39.40;;;;;;5088461;28;45300;-69
2022/08/04 08:24:35;;;;;;;3.30;2.25;;;29.60;39.40;;;;;;5088795;28;45210;-69
2022/08/04 08:27:03;;;;;;;7.88;2.55;;;29.60;39.60;;;;;;5088536;28;45235;-69
2022/08/04 08:29:29;;;;;;;3.10;2.20;;;29.60;39.80;;;;;;5088382;28;45338;-69
2022/08/04 08:31:56;;;;;;;2.83;2.40;;;29.70;39.90;;;;;;5088276;28;45326;-68
2022/08/04 08:34:23;;;;;;;2.40;2.20;;;29.70;40.00;;;;;;5088420;28;45205;-69
2022/08/04 08:36:53;;;;;;;6.10;2.42;;;29.80;39.90;;;;;;5088657;28;45292;-69
2022/08/04 08:39:24;;;;;;;6.63;2.30;;;29.80;39.70;;;;;;5093675;27;46672;-69
2022/08/04 08:42:19;;;;;;;4.85;2.38;;;29.80;39.90;;;;;;5088474;27;45347;-69
2022/08/04 08:45:22;;;;;;;3.42;2.10;;;29.90;40.30;;;;;;5031159;28;45438;-70
2022/08/04 08:48:01;;;;;;;2.25;2.05;;;30.00;40.40;;;;;;5084705;28;45873;-70
2022/08/04 08:50:44;;;;;;;2.42;2.10;;;30.00;40.60;;;;;;5087309;28;45421;-69
2022/08/04 08:53:23;;;;;;;2.53;2.30;;;30.10;40.60;;;;;;5084172;28;45421;-70
2022/08/04 08:56:01;;;;;;;2.30;2.10;;;30.10;40.60;;;;;;5087262;28;45383;-69
2022/08/04 08:58:38;;;;;;;2.90;1.90;;;30.20;40.50;;;;;;5087288;28;45484;-70
2022/08/04 09:01:12;;;;;;;2.10;1.92;;;30.20;40.50;;;;;;5086923;28;45343;-69
2022/08/04 09:04:05;;;;;;;2.55;2.22;;;30.30;40.60;;;;;;5087152;27;45372;-69
2022/08/04 09:06:38;;;;;;;3.33;2.10;;;30.30;40.50;;;;;;5086173;27;45396;-69
2022/08/04 09:09:25;;;;;;;4.90;2.17;;;30.40;40.30;;;;;;5069192;28;45416;-69
2022/08/04 09:11:57;;;;;;;2.13;1.80;;;30.40;40.10;;;;;;5054379;28;45383;-69
2022/08/04 09:14:28;;;;;;;1.95;1.85;;;30.50;39.70;;;;;;5084125;28;45340;-69
2022/08/04 09:17:02;;;;;;;3.25;2.58;;;30.50;40.10;;;;;;5086974;28;45380;-69
2022/08/04 09:19:32;;;;;;;2.25;1.90;;;30.60;39.60;;;;;;5087033;28;45506;-70
2022/08/04 09:22:02;;;;;;;2.40;2.10;;;30.60;39.40;;;;;;5086932;28;45562;-70
2022/08/04 09:24:31;;;;;;;2.30;2.10;;;30.60;39.20;;;;;;5086791;28;45435;-69
2022/08/04 09:27:00;;;;;;;1.98;1.88;;;30.70;39.40;;;;;;5086879;28;45399;-69
2022/08/04 09:29:33;;;;;;;6.38;1.85;;;30.70;39.20;;;;;;5087112;28;45571;-70
2022/08/04 09:32:04;;;;;;;2.72;2.00;;;30.70;38.90;;;;;;5086581;28;45445;-69
2022/08/04 09:34:35;;;;;;;2.17;1.98;;;30.80;39.10;;;;;;5086429;28;45384;-69
2022/08/04 09:37:06;;;;;;;6.22;2.10;;;30.90;39.40;;;;;;5086358;28;45247;-70
2022/08/04 09:39:37;;;;;;;2.30;2.10;;;30.90;39.70;;;;;;5086501;28;45556;-70
2022/08/04 09:42:09;;;;;;;2.22;2.03;;;30.90;39.60;;;;;;5085686;28;45397;-70
2022/08/04 09:44:49;;;;;;;1.85;1.63;;;30.90;39.50;;;;;;5086749;28;45303;-70
2022/08/04 09:47:18;;;;;;;2.58;1.67;;;31.10;39.20;;;;;;5085991;28;45536;-70
2022/08/04 09:49:47;;;;;;;2.00;1.80;;;31.10;38.70;;;;;;5086664;28;45424;-70
2022/08/04 09:52:21;;;;;;;1.98;1.70;;;31.10;38.60;;;;;;5085754;28;46313;-70
2022/08/04 09:54:51;;;;;;;1.70;1.60;;;31.20;38.50;;;;;;5085110;28;45119;-70
2022/08/04 09:57:26;;;;;;;3.17;2.00;;;31.20;38.30;;;;;;5089404;27;45411;-70
2022/08/04 09:59:58;;;;;;;2.00;1.73;;;31.30;38.20;;;;;;5085877;27;45482;-71
2022/08/04 10:02:25;;;;;;;1.70;1.60;;;31.30;38.10;;;;;;5066481;28;45250;-70
2022/08/04 10:04:55;;;;;;;3.55;1.70;;;31.30;38.00;;;;;;5066330;28;45344;-70
2022/08/04 10:07:36;;;;;;;1.70;1.60;;;31.40;38.20;;;;;;5066597;28;45256;-70
2022/08/04 10:10:23;;;;;;;2.17;1.65;;;31.40;37.80;;;;;;5067051;28;45329;-70
2022/08/04 10:13:13;;;;;;;1.65;1.55;;;31.50;37.30;;;;;;5080875;28;46611;-70
2022/08/04 10:15:45;;;;;;;2.97;1.52;;;31.60;36.40;;;;;;5086594;28;45226;-71
2022/08/04 10:18:17;;;;;;;2.63;1.70;;;31.60;36.90;;;;;;5085627;27;45362;-70
2022/08/04 10:20:53;;;;;;;2.90;1.80;;;31.60;37.30;;;;;;5077998;28;45440;-71
2022/08/04 10:23:24;;;;;;;3.78;1.67;;;31.70;37.50;;;;;;5075105;28;45424;-71
2022/08/04 10:26:11;;;;;;;1.70;1.60;;;31.80;37.60;;;;;;5080069;28;45554;-71
2022/08/04 10:28:42;;;;;;;1.85;1.30;;;31.80;36.60;;;;;;5074013;28;45371;-70
2022/08/04 10:31:10;;;;;;;2.40;1.38;;;31.90;36.70;;;;;;5073476;28;45254;-70
2022/08/04 10:33:41;;;;;;;1.35;1.25;;;31.90;36.00;;;;;;5072688;28;48325;-71
2022/08/04 10:36:09;;;;;;;1.58;1.48;;;32.00;35.80;;;;;;5077459;28;45243;-70
2022/08/04 10:38:39;;;;;;;2.15;1.40;;;32.00;35.30;;;;;;5080265;27;45403;-70
2022/08/04 10:41:18;;;;;;;3.05;1.45;;;32.10;34.40;;;;;;5093198;27;45434;-69
2022/08/04 10:43:49;;;;;;;2.33;1.52;;;32.10;34.90;;;;;;5091355;27;45320;-69
2022/08/04 10:46:20;;;;;;;1.33;1.23;;;32.20;33.90;;;;;;5091446;27;45339;-69
2022/08/04 10:48:50;;;;;;;1.77;1.23;;;32.20;34.60;;;;;;5090361;27;45447;-70
2022/08/04 10:51:21;;;;;;;0.98;0.95;;;32.30;34.00;;;;;;5089378;27;45169;-72
2022/08/04 10:53:52;;;;;;;1.65;1.13;;;32.30;33.20;;;;;;5087433;27;45356;-69
2022/08/04 10:56:22;;;;;;;1.08;1.08;;;32.40;32.90;;;;;;5090369;27;45318;-72
2022/08/04 10:58:51;;;;;;;0.93;0.93;;;32.50;32.50;;;;;;5097295;27;45728;-70
2022/08/04 11:01:22;;;;;;;1.42;0.95;;;32.50;32.20;;;;;;5095756;27;45602;-70
2022/08/04 11:03:51;;;;;;;1.33;1.17;;;32.60;32.50;;;;;;5096603;27;46678;-70
2022/08/04 11:06:19;;;;;;;1.45;1.10;;;32.70;32.40;;;;;;5090902;27;45479;-70
2022/08/04 11:08:48;;;;;;;1.02;1.00;;;32.80;32.00;;;;;;5085043;27;45498;-70
2022/08/04 11:11:16;;;;;;;1.45;1.20;;;32.80;31.50;;;;;;5084963;27;45435;-69
2022/08/04 11:13:45;;;;;;;1.35;1.25;;;32.90;31.40;;;;;;5093198;27;46418;-69
2022/08/04 11:16:16;;;;;;;1.20;1.10;;;33.00;31.00;;;;;;5091052;27;45498;-69
2022/08/04 11:18:47;;;;;;;2.15;1.10;;;33.00;30.40;;;;;;5093061;27;45368;-73
2022/08/04 11:21:18;;;;;;;1.20;1.10;;;33.20;32.60;;;;;;5091921;27;45416;-69
2022/08/04 11:23:47;;;;;;;2.20;1.10;;;33.30;30.30;;;;;;5092857;27;46374;-67
2022/08/04 11:26:15;;;;;;;1.83;1.40;;;33.40;30.10;;;;;;5091820;27;45272;-68
2022/08/04 11:28:47;;;;;;;0.88;0.88;;;33.40;30.30;;;;;;5093499;27;45422;-69
2022/08/04 11:31:15;;;;;;;1.17;1.08;;;33.60;29.10;;;;;;5094049;27;45415;-69
2022/08/04 11:33:47;;;;;;;1.08;0.98;;;33.60;28.80;;;;;;5099770;27;47328;-70
2022/08/04 11:36:20;;;;;;;1.02;1.00;;;33.70;29.20;;;;;;5098326;27;45395;-69
2022/08/04 11:38:48;;;;;;;1.02;0.90;;;33.80;29.10;;;;;;5101171;27;45411;-69
2022/08/04 11:41:18;;;;;;;1.13;1.13;;;33.90;28.50;;;;;;5100181;27;45336;-70
2022/08/04 11:43:48;;;;;;;3.50;1.13;;;34.00;28.40;;;;;;5097827;27;45376;-69
2022/08/04 11:46:18;;;;;;;1.27;1.17;;;34.00;28.70;;;;;;5099050;27;45217;-69
2022/08/04 11:48:50;;;;;;;1.27;1.02;;;34.10;28.70;;;;;;5097822;27;45514;-70
2022/08/04 11:51:17;;;;;;;0.90;0.90;;;34.10;28.80;;;;;;5096493;27;45448;-68
2022/08/04 11:53:44;;;;;;;1.02;1.00;;;34.20;28.30;;;;;;5095101;27;46246;-69
2022/08/04 11:56:13;;;;;;;1.10;1.00;;;34.20;28.20;;;;;;5096191;27;45370;-69
2022/08/04 11:58:40;;;;;;;1.08;1.00;;;34.30;28.10;;;;;;5098762;27;45570;-70
2022/08/04 12:01:12;;;;;;;1.95;1.15;;;34.40;28.00;;;;;;5097209;27;45388;-69
2022/08/04 12:03:46;;;;;;;1.23;1.10;;;34.40;28.50;;;;;;5098907;27;46664;-69
2022/08/04 12:06:17;;;;;;;1.23;1.10;;;34.50;28.70;;;;;;5098193;27;45460;-69
2022/08/04 12:08:54;;;;;;;1.25;1.15;;;34.50;29.10;;;;;;5088993;28;45345;-69
2022/08/04 12:11:24;;;;;;;1.10;1.10;;;34.60;28.80;;;;;;5088958;28;45316;-69
2022/08/04 12:14:00;;;;;;;1.10;1.00;;;34.70;28.50;;;;;;5088444;28;47290;-69
2022/08/04 12:16:30;;;;;;;2.83;1.20;;;34.80;28.90;;;;;;5088814;28;45184;-69
2022/08/04 12:18:59;;;;;;;2.80;1.25;;;34.80;28.30;;;;;;5089005;28;45399;-70
2022/08/04 12:21:29;;;;;;;2.75;1.20;;;34.90;28.70;;;;;;5089007;28;45308;-69
2022/08/04 12:23:58;;;;;;;3.20;1.30;;;34.90;27.80;;;;;;5088632;28;46588;-69
2022/08/04 12:26:27;;;;;;;1.02;1.02;;;35.00;27.60;;;;;;5088530;28;45284;-69
2022/08/04 12:28:58;;;;;;;3.00;1.10;;;35.00;27.70;;;;;;5088603;28;45226;-70
2022/08/04 12:31:27;;;;;;;1.00;1.00;;;35.10;27.40;;;;;;5088962;28;45373;-69
2022/08/04 12:33:56;;;;;;;2.58;1.00;;;35.20;27.60;;;;;;5088325;28;45478;-70
2022/08/04 12:36:26;;;;;;;1.27;1.17;;;35.30;27.10;;;;;;5088423;28;45324;-70
2022/08/04 12:38:58;;;;;;;2.35;1.10;;;35.30;27.20;;;;;;5091683;27;45236;-70
2022/08/04 12:41:27;;;;;;;2.17;1.10;;;35.40;27.00;;;;;;5108348;27;45332;-70
2022/08/04 12:43:55;;;;;;;3.13;1.30;;;35.50;26.60;;;;;;5108552;27;46498;-69
2022/08/04 12:46:23;;;;;;;1.25;1.05;;;35.60;26.70;;;;;;5108995;27;45303;-69
2022/08/04 12:48:50;;;;;;;1.10;1.10;;;35.60;26.20;;;;;;5108998;27;45241;-69
2022/08/04 12:51:17;;;;;;;0.95;0.95;;;35.70;26.80;;;;;;5109160;27;45272;-69
2022/08/04 12:53:44;;;;;;;1.08;0.95;;;35.70;26.40;;;;;;5108819;27;47281;-69
2022/08/04 12:56:14;;;;;;;1.33;1.23;;;35.80;26.50;;;;;;5108575;27;45226;-68
2022/08/04 12:58:41;;;;;;;1.95;1.20;;;35.90;26.50;;;;;;5108677;27;45264;-69
2022/08/04 13:01:10;;;;;;;2.40;1.13;;;35.90;26.00;;;;;;5108557;27;45497;-69
2022/08/04 13:03:38;;;;;;;1.40;1.30;;;36.00;26.20;;;;;;5108475;27;45330;-69
2022/08/04 13:06:06;;;;;;;1.20;1.10;;;36.00;26.40;;;;;;5107950;27;45380;-68
2022/08/04 13:08:33;;;;;;;1.67;1.10;;;36.10;26.40;;;;;;5108557;27;45133;-69
2022/08/04 13:11:00;;;;;;;1.20;1.10;;;36.20;26.70;;;;;;5108840;27;45226;-69
2022/08/04 13:13:28;;;;;;;1.60;1.13;;;36.20;26.40;;;;;;5103225;27;46375;-69
2022/08/04 13:15:57;;;;;;;1.00;1.00;;;36.30;26.20;;;;;;5108852;27;45289;-70
2022/08/04 13:18:24;;;;;;;1.20;1.10;;;36.40;26.50;;;;;;5108879;27;45260;-69
2022/08/04 13:20:51;;;;;;;1.95;1.20;;;36.40;26.20;;;;;;5108844;27;45352;-69